Simpson, Nevada
Current Conditions -  °F | °C
As of 1:52 AM on Friday 31 Oct 2014 (Local Time) from KBAN Reporting Station
Clear Clear  
Wind Chill: 50°   Ceiling: Unl
Heat Index: 50°   Visibility: NA
Dew Point: 19°   Wind: 10mph
Humidity: 29%   Direction: 240°WSW
Pressure: 30.01"   Gusts: 17mph
Location:  38.7596°N, 119.34°W
Report Text: KBAN 310852Z AUTO 24009G15KT CLR 10/M07 A3001 RMK AO2 SLP139 T01001072 56013 $
Loading
Personal Weather Stations






























Interactive Weather Map
Tropical Storm Tracking
New forecast layout! Learn more

10-Day Weather Forecast

Advertisements
Track Severe Weather on mobile